createdAt,value
2024-04-22T00:03:16.060Z,20.16
2024-04-22T00:08:22.233Z,20.53
2024-04-22T00:13:25.782Z,21.87
2024-04-22T00:18:28.937Z,21.29
2024-04-22T00:23:34.810Z,21.68
2024-04-22T00:28:38.097Z,22.20
2024-04-22T00:33:41.253Z,21.75
2024-04-22T00:38:47.236Z,22.16
2024-04-22T00:43:50.351Z,22.68
2024-04-22T00:48:53.729Z,22.60
2024-04-22T00:54:00.934Z,23.00
2024-04-22T00:59:04.661Z,23.31
2024-04-22T01:04:07.792Z,24.28
2024-04-22T01:09:13.724Z,24.51
2024-04-22T01:14:16.858Z,24.62
2024-04-22T01:19:20.212Z,25.45
2024-04-22T01:24:26.846Z,25.31
2024-04-22T01:29:29.918Z,25.51
2024-04-22T01:34:33.088Z,25.19
2024-04-22T01:39:39.234Z,26.15
2024-04-22T01:44:42.343Z,26.32
2024-04-22T01:49:45.709Z,26.39
2024-04-22T01:54:51.741Z,26.53
2024-04-22T01:59:55.099Z,26.66
2024-04-22T02:04:58.169Z,27.13
2024-04-22T02:10:12.774Z,27.59
2024-04-22T02:15:24.633Z,27.65
2024-04-22T02:20:27.742Z,27.78
2024-04-22T02:25:33.644Z,27.81
2024-04-22T02:30:36.712Z,27.81
2024-04-22T02:35:39.860Z,28.48
2024-04-22T02:40:45.790Z,28.64
2024-04-22T02:45:48.926Z,29.00
2024-04-22T02:50:52.014Z,29.12
2024-04-22T02:55:57.946Z,29.53
2024-04-22T03:01:01.870Z,29.72
2024-04-22T03:06:05.691Z,30.15
2024-04-22T03:11:11.935Z,30.48
2024-04-22T03:16:15.025Z,30.12
2024-04-22T03:21:18.179Z,30.59
2024-04-22T03:26:24.292Z,31.01
2024-04-22T03:31:27.440Z,30.58
2024-04-22T03:36:30.682Z,31.16
2024-04-22T03:41:36.511Z,31.16
2024-04-22T03:46:39.640Z,31.45
2024-04-22T03:51:42.901Z,31.40
2024-04-22T03:56:48.817Z,31.84
2024-04-22T04:01:52.307Z,31.81
2024-04-22T04:06:55.442Z,32.24
2024-04-22T04:12:01.366Z,32.04
2024-04-22T04:17:04.723Z,32.78
2024-04-22T04:22:07.994Z,32.73
2024-04-22T04:27:13.950Z,33.87
2024-04-22T04:32:17.146Z,34.05
2024-04-22T04:37:20.300Z,33.94
2024-04-22T04:42:26.283Z,33.83
2024-04-22T04:47:29.513Z,34.15
2024-04-22T04:52:32.687Z,34.53
2024-04-22T04:57:38.665Z,35.07
2024-04-22T05:06:14.423Z,34.67
2024-04-22T05:11:17.783Z,34.86
2024-04-22T05:16:21.157Z,35.08
2024-04-22T05:21:27.070Z,35.11
2024-04-22T05:26:30.172Z,34.98
2024-04-22T05:31:33.352Z,35.25
2024-04-22T05:36:39.221Z,35.00
2024-04-22T05:41:42.764Z,35.79
2024-04-22T05:46:46.081Z,35.91
2024-04-22T05:51:52.075Z,36.31
2024-04-22T05:56:55.157Z,36.31
2024-04-22T06:01:58.372Z,36.52
2024-04-22T06:07:05.346Z,36.89
2024-04-22T06:12:17.335Z,37.21
2024-04-22T06:17:23.011Z,38.00
2024-04-22T06:22:29.346Z,37.95
2024-04-22T06:27:32.450Z,39.20
2024-04-22T06:32:35.816Z,39.08
2024-04-22T06:37:41.918Z,39.26
2024-04-22T06:42:45.181Z,39.39
2024-04-22T06:47:48.409Z,39.37
2024-04-22T06:52:54.313Z,39.83
2024-04-22T06:57:57.467Z,40.42
2024-04-22T07:03:00.633Z,41.47
2024-04-22T07:08:07.523Z,41.68
2024-04-22T07:13:10.768Z,41.07
2024-04-22T07:18:13.913Z,40.91
2024-04-22T07:23:19.842Z,40.33
2024-04-22T07:28:23.571Z,40.01
2024-04-22T07:33:30.961Z,40.37
2024-04-22T07:38:40.487Z,40.60
2024-04-22T07:43:43.135Z,41.05
2024-04-22T07:48:46.362Z,41.22
2024-04-22T07:53:52.974Z,41.49
2024-04-22T07:58:56.433Z,41.83
2024-04-22T08:04:00.156Z,42.50
2024-04-22T08:09:06.696Z,42.77
2024-04-22T08:14:09.988Z,42.74
2024-04-22T08:19:13.117Z,43.37
2024-04-22T08:24:19.030Z,43.82
2024-04-22T08:29:22.073Z,43.86
2024-04-22T08:34:25.483Z,44.09
2024-04-22T08:39:31.377Z,44.26
2024-04-22T08:44:34.518Z,44.21
2024-04-22T08:49:37.939Z,44.18
2024-04-22T08:54:43.927Z,44.12
2024-04-22T08:59:49.218Z,44.00
2024-04-22T09:04:52.737Z,44.08
2024-04-22T09:10:21.905Z,43.71
2024-04-22T09:15:22.841Z,44.17
2024-04-22T09:20:27.275Z,44.06
2024-04-22T09:25:33.549Z,43.97
2024-04-22T09:30:40.420Z,44.53
2024-04-22T09:35:44.987Z,44.79
2024-04-22T09:40:52.153Z,45.06
2024-04-22T09:45:57.853Z,45.20
2024-04-22T09:51:02.886Z,44.96
2024-04-22T09:56:13.083Z,45.18
2024-04-22T10:01:16.663Z,45.11
2024-04-22T10:06:23.035Z,45.61
2024-04-22T10:11:32.196Z,45.98
2024-04-22T10:16:35.555Z,46.25
2024-04-22T10:21:41.948Z,46.44
2024-04-22T10:26:56.379Z,46.79
2024-04-22T10:32:05.037Z,47.63
2024-04-22T10:37:08.398Z,47.94
2024-04-22T10:42:14.738Z,48.81
2024-04-22T10:47:17.874Z,48.69
2024-04-22T10:52:21.176Z,49.65
2024-04-22T10:57:27.534Z,50.04
2024-04-22T11:02:30.988Z,50.22
2024-04-22T11:07:34.701Z,50.84
2024-04-22T11:12:41.811Z,51.14
2024-04-22T11:17:44.932Z,50.99
2024-04-22T11:22:48.111Z,51.67
2024-04-22T11:27:54.262Z,51.80
2024-04-22T11:32:57.551Z,52.06
2024-04-22T11:38:00.726Z,52.06
2024-04-22T11:43:06.768Z,52.15
2024-04-22T11:48:10.249Z,52.40
2024-04-22T11:53:20.887Z,52.68
2024-04-22T11:58:31.228Z,52.87
2024-04-22T12:03:34.338Z,52.58
2024-04-22T12:08:37.399Z,52.76
2024-04-22T12:13:43.830Z,52.69
2024-04-22T12:18:47.027Z,53.10
2024-04-22T12:23:50.181Z,52.79
2024-04-22T12:28:56.282Z,52.61
2024-04-22T12:34:06.662Z,52.50
2024-04-22T12:39:15.524Z,52.72
2024-04-22T12:44:21.462Z,52.61
2024-04-22T12:49:24.614Z,52.40
2024-04-22T12:54:28.170Z,52.52
2024-04-22T12:59:34.333Z,52.13
2024-04-22T13:04:37.534Z,52.57
2024-04-22T13:09:40.673Z,52.15
2024-04-22T13:14:46.862Z,51.09
2024-04-22T13:19:50.032Z,50.67
2024-04-22T13:24:53.208Z,50.57
2024-04-22T13:29:59.130Z,50.19
2024-04-22T13:35:02.231Z,49.54
2024-04-22T13:40:06.209Z,48.93
2024-04-22T13:45:12.203Z,49.27
2024-04-22T13:50:15.440Z,48.66
2024-04-22T13:55:18.798Z,48.58
2024-04-22T14:00:25.037Z,48.14
2024-04-22T14:05:28.225Z,48.00
2024-04-22T14:10:31.390Z,47.87
2024-04-22T14:15:45.264Z,47.38
2024-04-22T14:20:51.180Z,46.49
2024-04-22T14:25:54.530Z,46.66
2024-04-22T14:31:00.479Z,46.92
2024-04-22T14:36:03.650Z,46.62
2024-04-22T14:41:06.880Z,45.69
2024-04-22T14:46:12.784Z,45.45
2024-04-22T14:51:18.259Z,44.53
2024-04-22T14:56:21.533Z,43.91
2024-04-22T15:01:27.556Z,44.36
2024-04-22T15:06:30.684Z,43.44
2024-04-22T15:11:33.946Z,44.27
2024-04-22T15:16:40.334Z,44.83
2024-04-22T15:21:43.564Z,44.38
2024-04-22T15:26:46.645Z,44.22
2024-04-22T15:31:52.782Z,44.62
2024-04-22T15:36:55.914Z,43.23
2024-04-22T15:41:59.038Z,43.28
2024-04-22T15:47:05.665Z,43.42
2024-04-22T15:52:08.995Z,42.42
2024-04-22T15:57:12.155Z,41.99
2024-04-22T16:02:18.246Z,41.83
2024-04-22T16:07:21.422Z,41.45
2024-04-22T16:12:24.760Z,41.01
2024-04-22T16:17:30.898Z,41.24
2024-04-22T16:22:34.019Z,40.78
2024-04-22T16:27:37.164Z,40.31
2024-04-22T16:32:43.086Z,39.95
2024-04-22T16:37:49.393Z,40.24
2024-04-22T16:42:52.528Z,38.58
2024-04-22T16:47:59.006Z,39.21
2024-04-22T16:53:02.170Z,38.77
2024-04-22T16:58:05.534Z,37.45
2024-04-22T17:03:11.468Z,36.84
2024-04-22T17:08:14.574Z,37.15
2024-04-22T17:13:18.119Z,36.50
2024-04-22T17:18:24.350Z,35.47
2024-04-22T17:23:30.597Z,36.11
2024-04-22T17:28:33.680Z,35.18
2024-04-22T17:33:39.636Z,35.41
2024-04-22T17:38:42.789Z,35.26
2024-04-22T17:43:45.876Z,33.79
2024-04-22T17:48:51.936Z,33.56
2024-04-22T17:53:55.169Z,33.12
2024-04-22T17:58:58.259Z,33.93
2024-04-22T18:04:04.335Z,33.03
2024-04-22T18:09:07.455Z,33.36
2024-04-22T18:14:10.507Z,32.60
2024-04-22T18:19:16.794Z,32.12
2024-04-22T18:24:20.039Z,31.99
2024-04-22T18:29:23.201Z,32.04
2024-04-22T18:34:29.118Z,31.95
2024-04-22T18:39:32.251Z,31.60
2024-04-22T18:44:35.363Z,32.66
2024-04-22T18:49:41.565Z,32.37
2024-04-22T18:54:44.865Z,32.46
2024-04-22T18:59:47.947Z,32.09
2024-04-22T19:04:53.955Z,32.12
2024-04-22T19:09:57.105Z,32.17
2024-04-22T19:15:00.279Z,31.88
2024-04-22T19:20:07.912Z,31.70
2024-04-22T19:25:11.304Z,31.09
2024-04-22T19:30:14.400Z,31.24
2024-04-22T19:35:20.345Z,30.87
2024-04-22T19:40:23.600Z,31.83
2024-04-22T19:45:26.715Z,31.53
2024-04-22T19:50:32.654Z,31.18
2024-04-22T19:55:38.720Z,31.02
2024-04-22T20:00:41.835Z,31.25
2024-04-22T20:05:47.749Z,31.36
2024-04-22T20:10:50.869Z,31.41
2024-04-22T20:15:54.002Z,31.19
2024-04-22T20:21:00.178Z,31.26
2024-04-22T20:26:03.409Z,30.73
2024-04-22T20:31:06.559Z,30.91
2024-04-22T20:36:12.453Z,30.46
2024-04-22T20:41:15.542Z,30.77
2024-04-22T20:46:18.931Z,30.87
2024-04-22T20:51:24.922Z,30.58
2024-04-22T20:56:28.120Z,29.79
2024-04-22T21:01:31.402Z,30.01
2024-04-22T21:06:37.522Z,29.79
2024-04-22T21:11:40.683Z,31.12
2024-04-22T21:16:43.861Z,30.92
2024-04-22T21:21:50.046Z,31.35
2024-04-22T21:26:54.014Z,31.75
2024-04-22T21:31:58.153Z,31.42
2024-04-22T21:37:04.063Z,31.48
2024-04-22T21:42:07.348Z,31.72
2024-04-22T21:47:10.444Z,31.31
2024-04-22T21:52:16.347Z,31.25
2024-04-22T21:57:56.431Z,31.17
2024-04-22T22:03:36.210Z,31.44
2024-04-22T22:08:38.415Z,32.61
2024-04-22T22:13:44.474Z,31.64
2024-04-22T22:18:47.621Z,32.53
2024-04-22T22:23:51.023Z,32.10
2024-04-22T22:28:56.928Z,32.33
2024-04-22T22:34:00.015Z,32.01
2024-04-22T22:39:03.120Z,31.84
2024-04-22T22:44:09.036Z,31.51
2024-04-22T22:49:12.153Z,32.32
2024-04-22T22:54:15.210Z,32.47
2024-04-22T22:59:21.138Z,31.83
2024-04-22T23:04:24.249Z,32.41
2024-04-22T23:09:29.369Z,32.82
2024-04-22T23:14:35.320Z,32.73
2024-04-22T23:19:38.503Z,32.82
2024-04-22T23:24:41.801Z,33.53
2024-04-22T23:29:47.759Z,33.72
2024-04-22T23:34:51.085Z,33.12
2024-04-22T23:39:54.211Z,34.32
2024-04-22T23:45:00.181Z,34.80
2024-04-22T23:50:04.012Z,34.37
2024-04-22T23:55:07.845Z,34.31
